createdAt,value
2019-04-05T00:01:21.512Z,11.37
2019-04-05T00:03:52.100Z,11.87
2019-04-05T00:06:23.336Z,12.87
2019-04-05T00:08:53.913Z,12.13
2019-04-05T00:11:24.827Z,11.10
2019-04-05T00:13:55.322Z,12.17
2019-04-05T00:16:26.314Z,11.20
2019-04-05T00:18:56.783Z,10.70
2019-04-05T00:21:27.897Z,12.27
2019-04-05T00:23:58.861Z,10.50
2019-04-05T00:26:29.501Z,14.03
2019-04-05T00:29:00.031Z,11.13
2019-04-05T00:31:32.115Z,10.70
2019-04-05T00:34:03.794Z,11.33
2019-04-05T00:36:34.823Z,12.27
2019-04-05T00:39:08.068Z,10.00
2019-04-05T00:41:40.194Z,10.10
2019-04-05T00:44:10.789Z,10.80
2019-04-05T00:46:44.582Z,12.70
2019-04-05T00:49:14.456Z,11.67
2019-04-05T00:51:44.952Z,12.40
2019-04-05T00:54:15.940Z,12.23
2019-04-05T00:56:46.497Z,12.77
2019-04-05T00:59:17.564Z,13.97
2019-04-05T01:01:48.450Z,11.93
2019-04-05T01:04:18.926Z,10.47
2019-04-05T01:06:49.457Z,12.10
2019-04-05T01:09:20.009Z,14.77
2019-04-05T01:11:50.670Z,12.47
2019-04-05T01:14:22.574Z,15.47
2019-04-05T01:16:53.106Z,10.73
2019-04-05T01:19:25.093Z,12.73
2019-04-05T01:21:57.345Z,12.70
2019-04-05T01:24:27.995Z,10.90
2019-04-05T01:27:00.612Z,9.13
2019-04-05T01:29:31.588Z,11.83
2019-04-05T01:32:02.089Z,13.20
2019-04-05T01:34:32.665Z,12.97
2019-04-05T01:37:03.313Z,14.40
2019-04-05T01:39:33.829Z,14.57
2019-04-05T01:42:05.128Z,14.90
2019-04-05T01:44:36.695Z,12.47
2019-04-05T01:47:08.365Z,13.93
2019-04-05T01:49:40.310Z,16.07
2019-04-05T01:52:11.261Z,12.20
2019-04-05T01:54:41.806Z,12.57
2019-04-05T01:57:12.446Z,14.17
2019-04-05T01:59:43.880Z,15.67
2019-04-05T02:02:14.482Z,14.27
2019-04-05T02:04:44.995Z,12.13
2019-04-05T02:07:15.973Z,11.47
2019-04-05T02:09:46.538Z,10.83
2019-04-05T02:12:17.058Z,12.87
2019-04-05T02:14:47.523Z,11.00
2019-04-05T02:17:18.188Z,13.70
2019-04-05T02:19:48.725Z,15.57
2019-04-05T02:22:19.620Z,11.73
2019-04-05T02:24:50.143Z,12.50
2019-04-05T02:27:21.596Z,11.33
2019-04-05T02:29:52.122Z,13.30
2019-04-05T02:32:22.667Z,13.90
2019-04-05T02:34:53.203Z,12.17
2019-04-05T02:37:23.753Z,13.40
2019-04-05T02:39:54.260Z,15.43
2019-04-05T02:42:25.063Z,15.17
2019-04-05T02:44:55.733Z,12.93
2019-04-05T02:47:27.355Z,12.97
2019-04-05T02:49:58.927Z,13.13
2019-04-05T02:52:30.271Z,14.73
2019-04-05T02:55:02.491Z,15.90
2019-04-05T02:57:34.417Z,14.30
2019-04-05T03:00:05.319Z,12.70
2019-04-05T03:02:36.589Z,12.03
2019-04-05T03:05:07.232Z,12.80
2019-04-05T03:07:38.162Z,14.03
2019-04-05T03:10:08.692Z,14.90
2019-04-05T03:12:39.735Z,13.17
2019-04-05T03:15:10.855Z,13.50
2019-04-05T03:17:41.636Z,13.60
2019-04-05T03:20:12.381Z,13.47
2019-04-05T03:22:43.412Z,14.67
2019-04-05T03:25:14.430Z,15.87
2019-04-05T03:27:45.325Z,19.23
2019-04-05T03:30:16.410Z,15.73
2019-04-05T03:32:48.225Z,18.13
2019-04-05T03:35:20.157Z,16.97
2019-04-05T03:37:50.732Z,17.37
2019-04-05T03:40:22.230Z,15.47
2019-04-05T03:42:52.838Z,17.50
2019-04-05T03:45:23.765Z,16.97
2019-04-05T03:47:55.503Z,13.23
2019-04-05T03:50:26.042Z,15.20
2019-04-05T03:52:56.561Z,15.33
2019-04-05T03:55:27.541Z,15.30
2019-04-05T03:57:58.101Z,16.53
2019-04-05T04:00:30.401Z,17.00
2019-04-05T04:03:01.137Z,17.20
2019-04-05T04:05:33.601Z,16.43
2019-04-05T04:08:04.602Z,14.03
2019-04-05T04:10:35.857Z,15.43
2019-04-05T04:13:06.590Z,13.93
2019-04-05T04:15:37.667Z,17.57
2019-04-05T04:18:08.241Z,13.90
2019-04-05T04:20:42.584Z,14.27
2019-04-05T04:23:14.048Z,16.73
2019-04-05T04:25:44.966Z,18.23
2019-04-05T04:28:16.469Z,17.50
2019-04-05T04:30:47.105Z,17.80
2019-04-05T04:33:18.522Z,15.37
2019-04-05T04:35:49.084Z,14.07
2019-04-05T04:38:19.638Z,14.73
2019-04-05T04:40:51.836Z,13.20
2019-04-05T04:43:22.487Z,16.20
2019-04-05T04:45:53.413Z,19.13
2019-04-05T04:48:25.277Z,13.93
2019-04-05T04:50:55.904Z,14.53
2019-04-05T04:53:26.663Z,16.20
2019-04-05T04:55:57.206Z,14.47
2019-04-05T04:58:27.764Z,14.60
2019-04-05T05:00:58.560Z,13.77
2019-04-05T05:03:30.086Z,11.73
2019-04-05T05:06:00.732Z,18.90
2019-04-05T05:08:31.659Z,21.90
2019-04-05T05:11:14.039Z,17.97
2019-04-05T05:13:36.312Z,19.17
2019-04-05T05:16:06.975Z,14.87
2019-04-05T05:18:37.886Z,14.63
2019-04-05T05:21:08.959Z,18.20
2019-04-05T05:23:40.869Z,19.77
2019-04-05T05:26:11.533Z,17.60
2019-04-05T05:28:42.687Z,15.77
2019-04-05T05:31:13.526Z,16.37
2019-04-05T05:33:44.102Z,15.47
2019-04-05T05:36:14.655Z,20.63
2019-04-05T05:38:45.239Z,18.43
2019-04-05T05:41:15.647Z,16.37
2019-04-05T05:43:46.853Z,17.97
2019-04-05T05:46:17.436Z,16.10
2019-04-05T05:48:48.837Z,17.13
2019-04-05T05:51:19.599Z,15.17
2019-04-05T05:53:51.060Z,13.43
2019-04-05T05:56:21.594Z,20.40
2019-04-05T05:58:55.317Z,18.13
2019-04-05T06:01:24.900Z,16.60
2019-04-05T06:03:55.519Z,15.37
2019-04-05T06:06:26.048Z,16.77
2019-04-05T06:08:56.973Z,17.80
2019-04-05T06:11:28.929Z,17.63
2019-04-05T06:13:59.491Z,18.10
2019-04-05T06:16:30.012Z,15.17
2019-04-05T06:19:00.487Z,14.33
2019-04-05T06:21:31.001Z,14.23
2019-04-05T06:24:05.070Z,14.90
2019-04-05T06:26:34.528Z,17.73
2019-04-05T06:29:05.056Z,14.67
2019-04-05T06:31:35.570Z,16.50
2019-04-05T06:34:06.506Z,22.80
2019-04-05T06:36:36.968Z,14.47
2019-04-05T06:39:09.283Z,18.43
2019-04-05T06:41:41.190Z,18.20
2019-04-05T06:44:11.816Z,18.57
2019-04-05T06:46:43.438Z,16.67
2019-04-05T06:49:14.380Z,23.40
2019-04-05T06:51:44.919Z,18.23
2019-04-05T06:54:15.445Z,16.53
2019-04-05T06:56:45.979Z,17.30
2019-04-05T06:59:19.283Z,16.00
2019-04-05T07:01:49.961Z,16.60
2019-04-05T07:04:20.477Z,17.37
2019-04-05T07:06:51.048Z,22.23
2019-04-05T07:09:21.598Z,16.20
2019-04-05T07:11:52.169Z,22.80
2019-04-05T07:14:22.788Z,21.23
2019-04-05T07:16:53.292Z,18.53
2019-04-05T07:19:23.870Z,17.43
2019-04-05T07:21:54.379Z,17.60
2019-04-05T07:24:24.929Z,23.20
2019-04-05T07:26:55.900Z,22.80
2019-04-05T07:29:26.495Z,24.57
2019-04-05T07:31:57.987Z,18.23
2019-04-05T07:34:29.986Z,25.00
2019-04-05T07:37:00.972Z,20.87
2019-04-05T07:39:32.056Z,21.47
2019-04-05T07:42:02.559Z,20.97
2019-04-05T07:44:33.633Z,21.43
2019-04-05T07:47:04.206Z,25.50
2019-04-05T07:49:34.870Z,16.03
2019-04-05T07:52:05.919Z,17.43
2019-04-05T07:54:37.449Z,14.17
2019-04-05T07:57:07.975Z,18.70
2019-04-05T07:59:39.576Z,22.40
2019-04-05T08:02:10.462Z,16.90
2019-04-05T08:04:41.056Z,20.50
2019-04-05T08:07:13.068Z,19.70
2019-04-05T08:09:43.748Z,19.13
2019-04-05T08:12:14.824Z,18.90
2019-04-05T08:14:45.940Z,17.10
2019-04-05T08:17:16.928Z,12.83
2019-04-05T08:19:47.530Z,12.37
2019-04-05T08:22:18.500Z,19.83
2019-04-05T08:24:50.073Z,16.80
2019-04-05T08:27:20.612Z,12.93
2019-04-05T08:29:51.168Z,14.03
2019-04-05T08:32:22.294Z,21.07
2019-04-05T08:34:53.933Z,16.73
2019-04-05T08:37:24.498Z,16.67
2019-04-05T08:39:55.002Z,14.30
2019-04-05T08:42:25.908Z,12.67
2019-04-05T08:44:56.423Z,14.33
2019-04-05T08:47:27.421Z,13.63
2019-04-05T08:49:58.500Z,14.57
2019-04-05T08:52:30.082Z,13.43
2019-04-05T08:55:00.581Z,12.30
2019-04-05T08:57:31.169Z,15.60
2019-04-05T09:00:02.100Z,13.57
2019-04-05T09:02:32.788Z,13.10
2019-04-05T09:05:03.253Z,13.13
2019-04-05T09:07:34.236Z,17.73
2019-04-05T09:10:06.594Z,16.97
2019-04-05T09:12:37.605Z,14.03
2019-04-05T09:15:08.240Z,20.20
2019-04-05T09:17:38.878Z,15.30
2019-04-05T09:20:09.849Z,12.33
2019-04-05T09:22:40.472Z,14.03
2019-04-05T09:25:11.519Z,13.93
2019-04-05T09:27:42.017Z,9.67
2019-04-05T09:30:13.156Z,14.13
2019-04-05T09:32:43.860Z,14.43
2019-04-05T09:35:14.712Z,14.47
2019-04-05T09:37:45.746Z,13.20
2019-04-05T09:40:16.871Z,14.87
2019-04-05T09:42:47.463Z,12.83
2019-04-05T09:45:17.973Z,14.17
2019-04-05T09:47:49.004Z,14.17
2019-04-05T09:50:20.826Z,12.37
2019-04-05T09:52:51.377Z,14.67
2019-04-05T09:55:21.961Z,15.87
2019-04-05T09:57:52.454Z,13.87
2019-04-05T10:00:24.704Z,10.87
2019-04-05T10:02:55.316Z,9.70
2019-04-05T10:05:27.975Z,16.37
2019-04-05T10:07:58.531Z,13.70
2019-04-05T10:10:30.436Z,13.50
2019-04-05T10:13:00.923Z,13.20
2019-04-05T10:15:31.500Z,13.63
2019-04-05T10:18:02.064Z,16.70
2019-04-05T10:20:32.594Z,15.57
2019-04-05T10:23:03.692Z,12.50
2019-04-05T10:25:34.684Z,12.60
2019-04-05T10:28:05.544Z,14.00
2019-04-05T10:30:36.089Z,15.00
2019-04-05T10:33:07.046Z,19.07
2019-04-05T10:35:39.201Z,15.27
2019-04-05T10:38:10.113Z,20.67
2019-04-05T10:40:41.148Z,18.93
2019-04-05T10:43:11.912Z,15.83
2019-04-05T10:45:42.502Z,16.33
2019-04-05T10:48:13.084Z,18.40
2019-04-05T10:50:44.300Z,15.00
2019-04-05T10:53:15.260Z,15.80
2019-04-05T10:55:45.836Z,17.90
2019-04-05T10:58:17.380Z,21.53
2019-04-05T11:00:47.979Z,16.03
2019-04-05T11:03:19.016Z,20.57
2019-04-05T11:05:49.691Z,17.40
2019-04-05T11:08:21.235Z,16.67
2019-04-05T11:10:52.241Z,18.33
2019-04-05T11:13:23.251Z,13.20
2019-04-05T11:15:55.230Z,14.73
2019-04-05T11:18:25.901Z,21.40
2019-04-05T11:20:56.710Z,20.70
2019-04-05T11:23:27.212Z,20.50
2019-04-05T11:25:58.142Z,15.97
2019-04-05T11:28:29.152Z,13.27
2019-04-05T11:31:00.027Z,16.37
2019-04-05T11:33:30.539Z,20.80
2019-04-05T11:36:01.733Z,14.27
2019-04-05T11:38:33.308Z,18.00
2019-04-05T11:41:04.001Z,19.63
2019-04-05T11:43:36.173Z,18.50
2019-04-05T11:46:08.402Z,16.50
2019-04-05T11:48:41.408Z,17.60
2019-04-05T11:51:11.947Z,18.53
2019-04-05T11:53:43.901Z,17.40
2019-04-05T11:56:17.452Z,20.97
2019-04-05T11:58:49.053Z,17.20
2019-04-05T12:01:41.465Z,19.00
2019-04-05T12:04:12.424Z,17.77
2019-04-05T12:06:43.031Z,13.53
2019-04-05T12:09:13.533Z,14.73
2019-04-05T12:11:46.362Z,16.57
2019-04-05T12:14:29.342Z,16.73
2019-04-05T12:16:49.494Z,16.40
2019-04-05T12:19:21.106Z,14.77
2019-04-05T12:21:52.210Z,13.67
2019-04-05T12:24:23.252Z,18.17
2019-04-05T12:26:54.270Z,16.23
2019-04-05T12:29:24.845Z,19.03
2019-04-05T12:31:55.955Z,16.50
2019-04-05T12:34:28.594Z,17.07
2019-04-05T12:36:58.997Z,15.43
2019-04-05T12:39:29.503Z,18.20
2019-04-05T12:42:01.041Z,18.23
2019-04-05T12:44:32.043Z,15.43
2019-04-05T12:47:04.022Z,15.53
2019-04-05T12:49:34.586Z,17.40
2019-04-05T12:52:05.265Z,19.10
2019-04-05T12:54:35.797Z,18.10
2019-04-05T12:57:06.391Z,16.10
2019-04-05T12:59:37.350Z,17.43
2019-04-05T13:02:08.475Z,18.17
2019-04-05T13:04:39.041Z,15.27
2019-04-05T13:07:09.969Z,20.73
2019-04-05T13:09:40.520Z,17.87
2019-04-05T13:12:11.620Z,18.30
2019-04-05T13:14:42.105Z,16.80
2019-04-05T13:17:12.903Z,18.93
2019-04-05T13:19:43.503Z,17.97
2019-04-05T13:22:14.033Z,20.00
2019-04-05T13:24:45.444Z,15.67
2019-04-05T13:27:16.473Z,17.43
2019-04-05T13:29:47.366Z,19.63
2019-04-05T13:32:21.573Z,19.00
2019-04-05T13:34:55.372Z,16.57
2019-04-05T13:37:24.030Z,16.40
2019-04-05T13:39:55.009Z,15.90
2019-04-05T13:42:25.941Z,17.43
2019-04-05T13:44:57.308Z,17.30
2019-04-05T13:47:27.815Z,21.97
2019-04-05T13:49:58.445Z,17.63
2019-04-05T13:52:29.403Z,16.80
2019-04-05T13:55:00.013Z,18.80
2019-04-05T13:57:30.513Z,16.93
2019-04-05T14:00:01.812Z,17.47
2019-04-05T14:02:33.844Z,16.57
2019-04-05T14:05:05.301Z,18.03
2019-04-05T14:07:36.666Z,16.90
2019-04-05T14:10:10.504Z,17.50
2019-04-05T14:12:40.963Z,17.23
2019-04-05T14:15:12.894Z,19.00
2019-04-05T14:17:44.950Z,19.97
2019-04-05T14:20:18.570Z,15.03
2019-04-05T14:22:48.667Z,14.53
2019-04-05T14:25:23.406Z,18.23
2019-04-05T14:27:54.099Z,26.37
2019-04-05T14:30:26.427Z,20.60
2019-04-05T14:32:57.153Z,18.50
2019-04-05T14:35:27.737Z,17.13
2019-04-05T14:37:58.234Z,20.27
2019-04-05T14:40:31.577Z,18.70
2019-04-05T14:43:02.056Z,15.87
2019-04-05T14:45:32.701Z,16.80
2019-04-05T14:48:03.198Z,17.77
2019-04-05T14:50:33.749Z,17.37
2019-04-05T14:53:05.777Z,15.17
2019-04-05T14:55:37.936Z,18.83
2019-04-05T14:58:10.668Z,18.63
2019-04-05T15:00:41.304Z,17.00
2019-04-05T15:03:11.865Z,17.80
2019-04-05T15:05:42.340Z,16.43
2019-04-05T15:08:13.708Z,14.97
2019-04-05T15:10:44.676Z,16.80
2019-04-05T15:13:15.308Z,17.30
2019-04-05T15:15:46.208Z,16.10
2019-04-05T15:18:19.447Z,15.80
2019-04-05T15:20:49.279Z,12.97
2019-04-05T15:23:19.773Z,15.77
2019-04-05T15:25:50.501Z,16.07
2019-04-05T15:28:22.476Z,17.03
2019-04-05T15:30:56.128Z,17.03
2019-04-05T15:33:27.761Z,22.87
2019-04-05T15:36:02.315Z,20.83
2019-04-05T15:38:31.809Z,20.07
2019-04-05T15:41:04.561Z,18.47
2019-04-05T15:43:35.181Z,17.00
2019-04-05T15:46:05.736Z,19.37
2019-04-05T15:48:37.243Z,20.90
2019-04-05T15:51:07.880Z,19.53
2019-04-05T15:53:39.336Z,20.60
2019-04-05T15:56:09.930Z,20.60
2019-04-05T15:58:40.997Z,19.40
2019-04-05T16:01:12.080Z,18.37
2019-04-05T16:03:43.061Z,20.57
2019-04-05T16:06:13.559Z,21.80
2019-04-05T16:08:45.312Z,23.60
2019-04-05T16:11:15.853Z,24.40
2019-04-05T16:13:46.448Z,18.53
2019-04-05T16:16:17.023Z,25.00
2019-04-05T16:18:48.513Z,28.90
2019-04-05T16:21:19.525Z,22.57
2019-04-05T16:23:51.663Z,24.43
2019-04-05T16:26:23.025Z,23.67
2019-04-05T16:28:54.108Z,22.93
2019-04-05T16:31:33.602Z,23.63
2019-04-05T16:34:04.668Z,24.83
2019-04-05T16:36:35.112Z,23.33
2019-04-05T16:39:11.448Z,24.07
2019-04-05T16:41:42.382Z,23.20
2019-04-05T16:44:13.760Z,25.67
2019-04-05T16:46:44.885Z,24.23
2019-04-05T16:49:15.417Z,27.27
2019-04-05T16:51:46.480Z,24.23
2019-04-05T16:54:17.011Z,23.83
2019-04-05T16:56:49.183Z,20.53
2019-04-05T16:59:20.104Z,26.07
2019-04-05T17:01:56.636Z,22.53
2019-04-05T17:04:25.660Z,22.10
2019-04-05T17:06:56.098Z,30.23
2019-04-05T17:09:27.040Z,22.30
2019-04-05T17:11:57.455Z,22.20
2019-04-05T17:14:27.916Z,26.30
2019-04-05T17:16:58.798Z,27.13
2019-04-05T17:19:30.225Z,22.17
2019-04-05T17:22:01.535Z,22.30
2019-04-05T17:24:32.947Z,20.80
2019-04-05T17:27:03.444Z,23.27
2019-04-05T17:29:35.432Z,21.50
2019-04-05T17:32:06.315Z,22.83
2019-04-05T17:34:37.164Z,21.10
2019-04-05T17:37:08.081Z,22.47
2019-04-05T17:39:39.569Z,22.97
2019-04-05T17:42:10.743Z,25.03
2019-04-05T17:44:41.620Z,20.70
2019-04-05T17:47:12.197Z,22.60
2019-04-05T17:49:43.235Z,22.40
2019-04-05T17:52:14.166Z,20.57
2019-04-05T17:54:44.765Z,19.80
2019-04-05T17:57:16.655Z,19.20
2019-04-05T17:59:48.924Z,20.80
2019-04-05T18:02:19.578Z,18.07
2019-04-05T18:04:50.178Z,18.67
2019-04-05T18:07:21.518Z,17.10
2019-04-05T18:09:52.973Z,16.87
2019-04-05T18:12:24.114Z,21.13
2019-04-05T18:14:54.669Z,21.23
2019-04-05T18:17:25.343Z,21.47
2019-04-05T18:19:58.133Z,21.17
2019-04-05T18:22:28.790Z,18.37
2019-04-05T18:25:00.021Z,18.80
2019-04-05T18:27:30.553Z,20.30
2019-04-05T18:30:01.626Z,21.93
2019-04-05T18:32:34.737Z,21.10
2019-04-05T18:35:06.920Z,19.40
2019-04-05T18:37:38.564Z,18.90
2019-04-05T18:40:09.985Z,21.90
2019-04-05T18:42:40.589Z,20.00
2019-04-05T18:45:11.320Z,19.10
2019-04-05T18:47:42.380Z,18.37
2019-04-05T18:50:12.975Z,21.83
2019-04-05T18:52:43.485Z,21.00
2019-04-05T18:55:14.277Z,19.90
2019-04-05T18:57:47.980Z,19.80
2019-04-05T19:00:19.652Z,19.43
2019-04-05T19:02:50.222Z,19.50
2019-04-05T19:05:21.175Z,21.17
2019-04-05T19:07:51.673Z,20.43
2019-04-05T19:10:22.757Z,19.80
2019-04-05T19:12:53.401Z,17.40
2019-04-05T19:15:24.744Z,18.00
2019-04-05T19:17:55.296Z,22.10
2019-04-05T19:20:25.864Z,22.07
2019-04-05T19:22:56.921Z,26.40
2019-04-05T19:25:29.962Z,26.07
2019-04-05T19:28:00.504Z,25.83
2019-04-05T19:50:57.750Z,24.33
2019-04-05T19:53:32.707Z,23.77
2019-04-05T19:56:03.713Z,27.77
2019-04-05T19:58:35.956Z,22.47
2019-04-05T20:01:09.918Z,24.60
2019-04-05T20:03:41.035Z,22.37
2019-04-05T20:06:13.200Z,25.53
2019-04-05T20:08:43.773Z,24.57
2019-04-05T20:11:14.272Z,24.87
2019-04-05T20:13:45.434Z,24.63
2019-04-05T20:16:16.976Z,24.30
2019-04-05T20:18:49.170Z,24.30
2019-04-05T20:21:19.828Z,20.70
2019-04-05T20:23:51.518Z,20.83
2019-04-05T20:26:22.293Z,22.07
2019-04-05T20:28:53.220Z,21.07
2019-04-05T20:31:24.207Z,24.47
2019-04-05T20:33:55.678Z,23.20
2019-04-05T20:36:27.653Z,22.43
2019-04-05T20:38:58.152Z,22.67
2019-04-05T20:41:29.300Z,24.20
2019-04-05T20:44:02.110Z,22.37
2019-04-05T20:46:33.205Z,19.87
2019-04-05T20:49:04.146Z,20.03
2019-04-05T20:51:34.716Z,21.60
2019-04-05T20:54:06.644Z,19.73
2019-04-05T20:56:37.247Z,26.50
2019-04-05T20:59:07.776Z,25.27
2019-04-05T21:01:39.248Z,22.47
2019-04-05T21:04:10.273Z,24.57
2019-04-05T21:06:40.890Z,27.10
2019-04-05T21:09:11.958Z,21.40
2019-04-05T21:11:43.096Z,25.40
2019-04-05T21:14:13.643Z,24.33
2019-04-05T21:16:44.663Z,23.67
2019-04-05T21:19:16.076Z,23.57
2019-04-05T21:21:47.039Z,23.00
2019-04-05T21:24:17.796Z,27.97
2019-04-05T21:26:48.413Z,27.83
2019-04-05T21:29:19.313Z,25.07
2019-04-05T21:31:49.869Z,23.40
2019-04-05T21:34:21.133Z,24.23
2019-04-05T21:36:52.724Z,23.40
2019-04-05T21:39:24.502Z,25.40
2019-04-05T21:41:56.237Z,25.60
2019-04-05T21:44:27.729Z,26.27
2019-04-05T21:46:58.701Z,25.67
2019-04-05T21:49:30.166Z,24.80
2019-04-05T21:52:00.779Z,24.63
2019-04-05T21:54:31.352Z,26.27
2019-04-05T21:57:01.869Z,23.23
2019-04-05T21:59:32.869Z,21.30
2019-04-05T22:02:03.770Z,27.63
2019-04-05T22:04:34.864Z,23.97
2019-04-05T22:07:05.492Z,25.23
2019-04-05T22:09:36.528Z,25.63
2019-04-05T22:12:07.541Z,21.27
2019-04-05T22:14:38.099Z,21.57
2019-04-05T22:17:08.490Z,23.10
2019-04-05T22:19:38.913Z,24.43
2019-04-05T22:22:09.577Z,23.07
2019-04-05T22:24:40.033Z,21.27
2019-04-05T22:27:10.897Z,20.23
2019-04-05T22:29:42.788Z,25.27
2019-04-05T22:32:13.247Z,23.83
2019-04-05T22:34:44.396Z,22.90
2019-04-05T22:37:15.032Z,19.40
2019-04-05T22:39:45.724Z,22.37
2019-04-05T22:42:16.268Z,22.50
2019-04-05T22:44:47.572Z,21.87
2019-04-05T22:47:18.145Z,20.57
2019-04-05T22:49:51.515Z,20.40
2019-04-05T22:52:22.012Z,20.90
2019-04-05T22:54:52.684Z,29.37
2019-04-05T22:57:23.152Z,24.30
2019-04-05T22:59:54.108Z,26.73
2019-04-05T23:02:24.633Z,26.37
2019-04-05T23:04:55.225Z,25.80
2019-04-05T23:07:25.650Z,20.87
2019-04-05T23:09:56.099Z,23.00
2019-04-05T23:12:28.027Z,22.63
2019-04-05T23:14:58.439Z,19.37
2019-04-05T23:17:28.824Z,20.03
2019-04-05T23:19:59.382Z,21.60
2019-04-05T23:22:30.432Z,23.20
2019-04-05T23:25:01.488Z,20.43
2019-04-05T23:27:32.038Z,18.60
2019-04-05T23:30:04.415Z,20.87
2019-04-05T23:32:34.979Z,20.13
2019-04-05T23:35:06.089Z,17.97
2019-04-05T23:37:36.600Z,21.03
2019-04-05T23:40:07.285Z,22.87
2019-04-05T23:42:37.768Z,20.77
2019-04-05T23:45:08.333Z,19.80
2019-04-05T23:47:39.280Z,20.70
2019-04-05T23:50:09.932Z,19.53
2019-04-05T23:52:40.908Z,20.70
2019-04-05T23:55:11.603Z,24.83
2019-04-05T23:57:43.591Z,20.77
